LIPL/QBS METAR and TAF weather

Enter ICAO airport designator
Station Type Date Time Source
LIPL METAR 2018/12/13 18:55 UTC NOAA

LIPL 131855Z 35002KT CAVOK 01/00 Q1016 RMK FEW FEW100 VIS MIN 9999 WIND THR31 34002KT WIND THR13 34001KT BLU


Station Type Date Time Source
LIPL Decoded METAR 2018/12/13 18:55 UTC NOAA

Brescia / Ghedi, Italy (LIPL) 45-25N 010-17E 97M
Dec 13, 2018 - 01:55 PM EST / 2018.12.13 1855 UTC
Wind: from the N (350 degrees) at 2 MPH (2 KT):0
Visibility: greater than 7 mile(s):0
Temperature: 33 F (1 C)
Dew Point: 32 F (0 C)
Relative Humidity: 93%
Pressure (altimeter): 30.00 in. Hg (1016 hPa)
ob: LIPL 131855Z 35002KT CAVOK 01/00 Q1016 RMK FEW FEW100 VIS MIN 9999 WIND THR31 34002KT WIND THR13 34001KT BLU
cycle: 19

Station Type Date Time Source
LIPL TAF 2018/06/14 09:48 UTC NOAA

TAF TAF LIPL 140800Z 1409/1421 VRB05KT 9999 SCT035 SCT080


Example: see airport list